sensor_id;sensor_type;location;lat;lon;timestamp;P1;durP1;ratioP1;P2;durP2;ratioP2
39020;SDS011;25188;51.958;5.842;2023-04-06T00:02:11;15.97;;;8.93;;
39020;SDS011;25188;51.958;5.842;2023-04-06T00:04:37;13.90;;;7.37;;
39020;SDS011;25188;51.958;5.842;2023-04-06T00:07:02;17.20;;;8.17;;
39020;SDS011;25188;51.958;5.842;2023-04-06T00:09:28;16.10;;;8.00;;
39020;SDS011;25188;51.958;5.842;2023-04-06T00:11:54;14.27;;;7.13;;
39020;SDS011;25188;51.958;5.842;2023-04-06T00:14:20;14.43;;;7.90;;
39020;SDS011;25188;51.958;5.842;2023-04-06T00:16:45;14.37;;;8.67;;
39020;SDS011;25188;51.958;5.842;2023-04-06T00:19:11;13.17;;;7.73;;
39020;SDS011;25188;51.958;5.842;2023-04-06T00:21:37;13.33;;;7.07;;
39020;SDS011;25188;51.958;5.842;2023-04-06T00:24:03;14.77;;;7.87;;
39020;SDS011;25188;51.958;5.842;2023-04-06T00:26:29;15.37;;;7.87;;
39020;SDS011;25188;51.958;5.842;2023-04-06T00:28:55;14.80;;;8.00;;
39020;SDS011;25188;51.958;5.842;2023-04-06T00:31:21;16.37;;;8.90;;
39020;SDS011;25188;51.958;5.842;2023-04-06T00:33:47;12.37;;;7.47;;
39020;SDS011;25188;51.958;5.842;2023-04-06T00:36:13;15.10;;;7.93;;
39020;SDS011;25188;51.958;5.842;2023-04-06T00:38:39;15.43;;;7.93;;
39020;SDS011;25188;51.958;5.842;2023-04-06T00:41:04;14.90;;;8.30;;
39020;SDS011;25188;51.958;5.842;2023-04-06T00:43:31;15.60;;;7.67;;
39020;SDS011;25188;51.958;5.842;2023-04-06T00:45:56;13.70;;;7.67;;
39020;SDS011;25188;51.958;5.842;2023-04-06T00:48:23;13.50;;;7.87;;
39020;SDS011;25188;51.958;5.842;2023-04-06T00:50:48;12.17;;;7.33;;
39020;SDS011;25188;51.958;5.842;2023-04-06T00:53:14;15.50;;;7.33;;
39020;SDS011;25188;51.958;5.842;2023-04-06T00:55:40;14.93;;;7.20;;
39020;SDS011;25188;51.958;5.842;2023-04-06T00:58:05;14.27;;;7.30;;
39020;SDS011;25188;51.958;5.842;2023-04-06T01:00:32;14.10;;;7.90;;
39020;SDS011;25188;51.958;5.842;2023-04-06T01:02:58;15.27;;;7.77;;
39020;SDS011;25188;51.958;5.842;2023-04-06T01:05:24;14.80;;;7.30;;
39020;SDS011;25188;51.958;5.842;2023-04-06T01:07:49;15.17;;;7.33;;
39020;SDS011;25188;51.958;5.842;2023-04-06T01:10:33;15.77;;;7.60;;
39020;SDS011;25188;51.958;5.842;2023-04-06T01:12:59;12.77;;;6.90;;
39020;SDS011;25188;51.958;5.842;2023-04-06T01:15:25;13.30;;;6.73;;
39020;SDS011;25188;51.958;5.842;2023-04-06T01:17:51;12.67;;;7.20;;
39020;SDS011;25188;51.958;5.842;2023-04-06T01:20:17;14.80;;;6.90;;
39020;SDS011;25188;51.958;5.842;2023-04-06T01:22:43;15.23;;;8.13;;
39020;SDS011;25188;51.958;5.842;2023-04-06T01:25:09;13.03;;;6.97;;
39020;SDS011;25188;51.958;5.842;2023-04-06T01:27:35;12.77;;;7.10;;
39020;SDS011;25188;51.958;5.842;2023-04-06T01:30:01;13.10;;;7.57;;
39020;SDS011;25188;51.958;5.842;2023-04-06T01:32:27;13.77;;;7.70;;
39020;SDS011;25188;51.958;5.842;2023-04-06T01:34:53;13.60;;;7.77;;
39020;SDS011;25188;51.958;5.842;2023-04-06T01:37:19;12.13;;;6.80;;
39020;SDS011;25188;51.958;5.842;2023-04-06T01:39:45;12.83;;;6.93;;
39020;SDS011;25188;51.958;5.842;2023-04-06T01:42:11;13.33;;;7.50;;
39020;SDS011;25188;51.958;5.842;2023-04-06T01:44:37;12.97;;;7.33;;
39020;SDS011;25188;51.958;5.842;2023-04-06T01:47:02;14.07;;;7.90;;
39020;SDS011;25188;51.958;5.842;2023-04-06T01:49:28;15.30;;;7.67;;
39020;SDS011;25188;51.958;5.842;2023-04-06T01:51:54;13.27;;;7.77;;
39020;SDS011;25188;51.958;5.842;2023-04-06T01:54:20;11.50;;;7.13;;
39020;SDS011;25188;51.958;5.842;2023-04-06T01:56:45;13.03;;;7.60;;
39020;SDS011;25188;51.958;5.842;2023-04-06T01:59:11;14.40;;;7.90;;
39020;SDS011;25188;51.958;5.842;2023-04-06T02:01:37;15.80;;;7.93;;
39020;SDS011;25188;51.958;5.842;2023-04-06T02:04:02;12.67;;;7.37;;
39020;SDS011;25188;51.958;5.842;2023-04-06T02:06:28;14.77;;;8.13;;
39020;SDS011;25188;51.958;5.842;2023-04-06T02:08:53;12.87;;;7.67;;
39020;SDS011;25188;51.958;5.842;2023-04-06T02:11:21;14.40;;;8.10;;
39020;SDS011;25188;51.958;5.842;2023-04-06T02:13:47;14.53;;;8.50;;
39020;SDS011;25188;51.958;5.842;2023-04-06T02:16:13;14.53;;;8.00;;
39020;SDS011;25188;51.958;5.842;2023-04-06T02:18:39;13.40;;;7.80;;
39020;SDS011;25188;51.958;5.842;2023-04-06T02:21:05;16.07;;;7.67;;
39020;SDS011;25188;51.958;5.842;2023-04-06T02:23:31;14.67;;;8.00;;
39020;SDS011;25188;51.958;5.842;2023-04-06T02:25:56;13.90;;;7.30;;
39020;SDS011;25188;51.958;5.842;2023-04-06T02:28:22;12.80;;;7.67;;
39020;SDS011;25188;51.958;5.842;2023-04-06T02:30:48;14.90;;;8.07;;
39020;SDS011;25188;51.958;5.842;2023-04-06T02:33:13;14.43;;;7.73;;
39020;SDS011;25188;51.958;5.842;2023-04-06T02:35:39;13.87;;;7.27;;
39020;SDS011;25188;51.958;5.842;2023-04-06T02:38:05;16.97;;;8.13;;
39020;SDS011;25188;51.958;5.842;2023-04-06T02:40:31;12.83;;;7.73;;
39020;SDS011;25188;51.958;5.842;2023-04-06T02:42:56;15.93;;;8.40;;
39020;SDS011;25188;51.958;5.842;2023-04-06T02:45:22;16.00;;;8.00;;
39020;SDS011;25188;51.958;5.842;2023-04-06T02:47:48;13.10;;;7.40;;
39020;SDS011;25188;51.958;5.842;2023-04-06T02:50:13;18.07;;;9.00;;
39020;SDS011;25188;51.958;5.842;2023-04-06T02:52:39;15.93;;;8.57;;
39020;SDS011;25188;51.958;5.842;2023-04-06T02:55:06;16.23;;;7.93;;
39020;SDS011;25188;51.958;5.842;2023-04-06T02:57:32;15.23;;;8.30;;
39020;SDS011;25188;51.958;5.842;2023-04-06T03:00:01;16.00;;;8.90;;
39020;SDS011;25188;51.958;5.842;2023-04-06T03:02:26;15.67;;;8.13;;
39020;SDS011;25188;51.958;5.842;2023-04-06T03:04:52;14.87;;;7.90;;
39020;SDS011;25188;51.958;5.842;2023-04-06T03:07:18;13.53;;;7.50;;
39020;SDS011;25188;51.958;5.842;2023-04-06T03:09:43;15.60;;;8.90;;
39020;SDS011;25188;51.958;5.842;2023-04-06T03:12:09;15.37;;;7.93;;
39020;SDS011;25188;51.958;5.842;2023-04-06T03:14:35;12.03;;;7.67;;
39020;SDS011;25188;51.958;5.842;2023-04-06T03:17:00;13.10;;;7.70;;
39020;SDS011;25188;51.958;5.842;2023-04-06T03:19:27;14.80;;;8.00;;
39020;SDS011;25188;51.958;5.842;2023-04-06T03:21:52;16.23;;;7.97;;
39020;SDS011;25188;51.958;5.842;2023-04-06T03:24:18;18.57;;;8.70;;
39020;SDS011;25188;51.958;5.842;2023-04-06T03:26:44;13.13;;;7.77;;
39020;SDS011;25188;51.958;5.842;2023-04-06T03:29:10;15.73;;;8.27;;
39020;SDS011;25188;51.958;5.842;2023-04-06T03:34:17;15.73;;;8.53;;
39020;SDS011;25188;51.958;5.842;2023-04-06T03:36:43;15.13;;;8.17;;
39020;SDS011;25188;51.958;5.842;2023-04-06T03:39:08;16.13;;;8.70;;
39020;SDS011;25188;51.958;5.842;2023-04-06T03:41:34;16.23;;;8.13;;
39020;SDS011;25188;51.958;5.842;2023-04-06T03:44:00;13.47;;;8.03;;
39020;SDS011;25188;51.958;5.842;2023-04-06T03:46:25;14.43;;;8.30;;
39020;SDS011;25188;51.958;5.842;2023-04-06T03:48:51;14.47;;;8.50;;
39020;SDS011;25188;51.958;5.842;2023-04-06T03:51:17;15.77;;;8.23;;
39020;SDS011;25188;51.958;5.842;2023-04-06T03:53:42;14.53;;;8.03;;
39020;SDS011;25188;51.958;5.842;2023-04-06T03:56:08;15.13;;;8.57;;
39020;SDS011;25188;51.958;5.842;2023-04-06T03:58:34;15.33;;;8.00;;
39020;SDS011;25188;51.958;5.842;2023-04-06T04:01:00;15.30;;;8.33;;
39020;SDS011;25188;51.958;5.842;2023-04-06T04:03:25;16.07;;;7.93;;
39020;SDS011;25188;51.958;5.842;2023-04-06T04:05:52;13.70;;;7.60;;
39020;SDS011;25188;51.958;5.842;2023-04-06T04:08:20;17.43;;;8.83;;
39020;SDS011;25188;51.958;5.842;2023-04-06T04:10:46;16.10;;;7.60;;
39020;SDS011;25188;51.958;5.842;2023-04-06T04:13:12;14.73;;;8.03;;
39020;SDS011;25188;51.958;5.842;2023-04-06T04:15:37;16.43;;;7.67;;
39020;SDS011;25188;51.958;5.842;2023-04-06T04:18:03;17.23;;;7.83;;
39020;SDS011;25188;51.958;5.842;2023-04-06T04:20:29;14.40;;;8.03;;
39020;SDS011;25188;51.958;5.842;2023-04-06T04:22:54;14.90;;;7.90;;
39020;SDS011;25188;51.958;5.842;2023-04-06T04:25:20;16.20;;;7.90;;
39020;SDS011;25188;51.958;5.842;2023-04-06T04:27:46;14.57;;;8.73;;
39020;SDS011;25188;51.958;5.842;2023-04-06T04:30:12;15.93;;;8.63;;
39020;SDS011;25188;51.958;5.842;2023-04-06T04:32:37;14.43;;;8.27;;
39020;SDS011;25188;51.958;5.842;2023-04-06T04:35:03;16.47;;;8.33;;
39020;SDS011;25188;51.958;5.842;2023-04-06T04:37:29;16.80;;;8.90;;
39020;SDS011;25188;51.958;5.842;2023-04-06T04:39:54;15.00;;;8.80;;
39020;SDS011;25188;51.958;5.842;2023-04-06T04:42:20;15.53;;;9.17;;
39020;SDS011;25188;51.958;5.842;2023-04-06T04:44:46;14.07;;;8.10;;
39020;SDS011;25188;51.958;5.842;2023-04-06T04:47:12;14.27;;;8.13;;
39020;SDS011;25188;51.958;5.842;2023-04-06T04:49:38;14.33;;;9.03;;
39020;SDS011;25188;51.958;5.842;2023-04-06T04:52:03;16.03;;;9.27;;
39020;SDS011;25188;51.958;5.842;2023-04-06T04:54:29;16.40;;;8.93;;
39020;SDS011;25188;51.958;5.842;2023-04-06T04:56:55;18.30;;;9.60;;
39020;SDS011;25188;51.958;5.842;2023-04-06T04:59:20;15.67;;;8.70;;
39020;SDS011;25188;51.958;5.842;2023-04-06T05:01:46;17.80;;;8.60;;
39020;SDS011;25188;51.958;5.842;2023-04-06T05:04:12;16.17;;;9.27;;
39020;SDS011;25188;51.958;5.842;2023-04-06T05:06:37;15.07;;;9.57;;
39020;SDS011;25188;51.958;5.842;2023-04-06T05:09:03;19.43;;;9.93;;
39020;SDS011;25188;51.958;5.842;2023-04-06T05:11:28;20.83;;;9.33;;
39020;SDS011;25188;51.958;5.842;2023-04-06T05:13:54;18.30;;;9.77;;
39020;SDS011;25188;51.958;5.842;2023-04-06T05:16:21;16.27;;;9.27;;
39020;SDS011;25188;51.958;5.842;2023-04-06T05:18:47;17.03;;;9.17;;
39020;SDS011;25188;51.958;5.842;2023-04-06T05:21:13;16.23;;;9.60;;
39020;SDS011;25188;51.958;5.842;2023-04-06T05:23:42;17.00;;;9.43;;
39020;SDS011;25188;51.958;5.842;2023-04-06T05:26:08;17.67;;;9.93;;
39020;SDS011;25188;51.958;5.842;2023-04-06T05:28:33;16.73;;;9.73;;
39020;SDS011;25188;51.958;5.842;2023-04-06T05:30:59;17.23;;;9.37;;
39020;SDS011;25188;51.958;5.842;2023-04-06T05:33:25;16.47;;;9.33;;
39020;SDS011;25188;51.958;5.842;2023-04-06T05:35:51;14.90;;;9.10;;
39020;SDS011;25188;51.958;5.842;2023-04-06T05:38:16;18.77;;;10.17;;
39020;SDS011;25188;51.958;5.842;2023-04-06T05:40:42;16.17;;;8.97;;
39020;SDS011;25188;51.958;5.842;2023-04-06T05:43:08;17.17;;;9.17;;
39020;SDS011;25188;51.958;5.842;2023-04-06T05:45:33;20.47;;;10.50;;
39020;SDS011;25188;51.958;5.842;2023-04-06T05:48:00;18.60;;;9.63;;
39020;SDS011;25188;51.958;5.842;2023-04-06T05:50:28;20.13;;;9.97;;
39020;SDS011;25188;51.958;5.842;2023-04-06T05:52:54;19.60;;;8.80;;
39020;SDS011;25188;51.958;5.842;2023-04-06T05:55:20;21.17;;;10.53;;
39020;SDS011;25188;51.958;5.842;2023-04-06T06:05:15;17.57;;;8.73;;
39020;SDS011;25188;51.958;5.842;2023-04-06T06:07:41;18.23;;;9.60;;
39020;SDS011;25188;51.958;5.842;2023-04-06T06:10:07;19.30;;;10.13;;
39020;SDS011;25188;51.958;5.842;2023-04-06T06:12:33;17.90;;;10.50;;
39020;SDS011;25188;51.958;5.842;2023-04-06T06:14:58;20.77;;;10.93;;
39020;SDS011;25188;51.958;5.842;2023-04-06T06:17:25;17.77;;;9.83;;
39020;SDS011;25188;51.958;5.842;2023-04-06T06:19:51;20.53;;;11.53;;
39020;SDS011;25188;51.958;5.842;2023-04-06T06:22:16;19.63;;;10.67;;
39020;SDS011;25188;51.958;5.842;2023-04-06T06:24:42;18.33;;;10.93;;
39020;SDS011;25188;51.958;5.842;2023-04-06T06:27:08;20.63;;;11.47;;
39020;SDS011;25188;51.958;5.842;2023-04-06T06:29:33;22.17;;;10.93;;
39020;SDS011;25188;51.958;5.842;2023-04-06T06:31:59;19.03;;;10.20;;
39020;SDS011;25188;51.958;5.842;2023-04-06T06:34:25;16.87;;;10.20;;
39020;SDS011;25188;51.958;5.842;2023-04-06T06:36:50;17.67;;;10.53;;
39020;SDS011;25188;51.958;5.842;2023-04-06T06:39:16;20.33;;;11.47;;
39020;SDS011;25188;51.958;5.842;2023-04-06T06:41:42;18.87;;;10.53;;
39020;SDS011;25188;51.958;5.842;2023-04-06T06:44:08;21.60;;;11.50;;
39020;SDS011;25188;51.958;5.842;2023-04-06T06:46:33;22.53;;;11.03;;
39020;SDS011;25188;51.958;5.842;2023-04-06T06:48:59;20.37;;;11.67;;
39020;SDS011;25188;51.958;5.842;2023-04-06T06:51:25;22.23;;;12.53;;
39020;SDS011;25188;51.958;5.842;2023-04-06T06:53:50;19.97;;;11.97;;
39020;SDS011;25188;51.958;5.842;2023-04-06T06:56:16;22.20;;;12.23;;
39020;SDS011;25188;51.958;5.842;2023-04-06T06:58:42;21.57;;;12.87;;
39020;SDS011;25188;51.958;5.842;2023-04-06T07:01:08;20.17;;;11.47;;
39020;SDS011;25188;51.958;5.842;2023-04-06T07:03:33;19.70;;;11.90;;
39020;SDS011;25188;51.958;5.842;2023-04-06T07:05:59;20.97;;;11.97;;
39020;SDS011;25188;51.958;5.842;2023-04-06T07:08:25;22.83;;;13.20;;
39020;SDS011;25188;51.958;5.842;2023-04-06T07:10:51;22.20;;;12.30;;
39020;SDS011;25188;51.958;5.842;2023-04-06T07:13:18;22.30;;;12.17;;
39020;SDS011;25188;51.958;5.842;2023-04-06T07:15:47;22.73;;;11.83;;
39020;SDS011;25188;51.958;5.842;2023-04-06T07:18:17;19.70;;;11.97;;
39020;SDS011;25188;51.958;5.842;2023-04-06T07:20:43;20.33;;;11.83;;
39020;SDS011;25188;51.958;5.842;2023-04-06T07:23:09;20.37;;;11.53;;
39020;SDS011;25188;51.958;5.842;2023-04-06T07:25:35;24.03;;;12.23;;
39020;SDS011;25188;51.958;5.842;2023-04-06T07:28:01;17.87;;;10.90;;
39020;SDS011;25188;51.958;5.842;2023-04-06T07:30:27;22.43;;;11.87;;
39020;SDS011;25188;51.958;5.842;2023-04-06T07:32:54;19.77;;;11.93;;
39020;SDS011;25188;51.958;5.842;2023-04-06T07:35:25;29.70;;;12.60;;
39020;SDS011;25188;51.958;5.842;2023-04-06T07:37:52;21.27;;;12.50;;
39020;SDS011;25188;51.958;5.842;2023-04-06T07:40:18;21.27;;;12.63;;
39020;SDS011;25188;51.958;5.842;2023-04-06T07:42:44;22.07;;;13.03;;
39020;SDS011;25188;51.958;5.842;2023-04-06T07:45:10;22.47;;;12.40;;
39020;SDS011;25188;51.958;5.842;2023-04-06T07:47:36;19.90;;;11.47;;
39020;SDS011;25188;51.958;5.842;2023-04-06T07:50:02;22.50;;;12.33;;
39020;SDS011;25188;51.958;5.842;2023-04-06T07:52:28;22.40;;;12.60;;
39020;SDS011;25188;51.958;5.842;2023-04-06T07:54:54;22.40;;;12.00;;
39020;SDS011;25188;51.958;5.842;2023-04-06T07:57:19;18.30;;;11.00;;
39020;SDS011;25188;51.958;5.842;2023-04-06T07:59:45;21.20;;;12.37;;
39020;SDS011;25188;51.958;5.842;2023-04-06T08:02:11;24.10;;;13.33;;
39020;SDS011;25188;51.958;5.842;2023-04-06T08:04:37;21.40;;;12.37;;
39020;SDS011;25188;51.958;5.842;2023-04-06T08:07:02;20.50;;;12.50;;
39020;SDS011;25188;51.958;5.842;2023-04-06T08:09:28;22.63;;;12.57;;
39020;SDS011;25188;51.958;5.842;2023-04-06T08:11:54;22.83;;;13.70;;
39020;SDS011;25188;51.958;5.842;2023-04-06T08:14:19;19.20;;;11.57;;
39020;SDS011;25188;51.958;5.842;2023-04-06T08:16:45;20.43;;;11.80;;
39020;SDS011;25188;51.958;5.842;2023-04-06T08:19:11;20.80;;;11.57;;
39020;SDS011;25188;51.958;5.842;2023-04-06T08:21:37;22.37;;;12.77;;
39020;SDS011;25188;51.958;5.842;2023-04-06T08:24:05;23.47;;;12.10;;
39020;SDS011;25188;51.958;5.842;2023-04-06T08:26:31;23.77;;;12.57;;
39020;SDS011;25188;51.958;5.842;2023-04-06T08:28:57;20.27;;;12.57;;
39020;SDS011;25188;51.958;5.842;2023-04-06T08:31:22;18.87;;;11.13;;
39020;SDS011;25188;51.958;5.842;2023-04-06T08:33:48;21.07;;;11.97;;
39020;SDS011;25188;51.958;5.842;2023-04-06T08:36:14;22.37;;;12.73;;
39020;SDS011;25188;51.958;5.842;2023-04-06T08:38:40;21.43;;;12.97;;
39020;SDS011;25188;51.958;5.842;2023-04-06T08:41:11;20.00;;;12.60;;
39020;SDS011;25188;51.958;5.842;2023-04-06T08:43:42;22.07;;;11.70;;
39020;SDS011;25188;51.958;5.842;2023-04-06T08:46:10;19.40;;;11.53;;
39020;SDS011;25188;51.958;5.842;2023-04-06T08:48:36;22.73;;;12.47;;
39020;SDS011;25188;51.958;5.842;2023-04-06T08:51:04;22.33;;;12.30;;
39020;SDS011;25188;51.958;5.842;2023-04-06T08:53:31;18.67;;;11.57;;
39020;SDS011;25188;51.958;5.842;2023-04-06T08:55:56;17.87;;;11.73;;
39020;SDS011;25188;51.958;5.842;2023-04-06T08:58:23;18.93;;;12.43;;
39020;SDS011;25188;51.958;5.842;2023-04-06T09:00:50;19.30;;;11.73;;
39020;SDS011;25188;51.958;5.842;2023-04-06T09:03:16;19.90;;;12.67;;
39020;SDS011;25188;51.958;5.842;2023-04-06T09:05:42;23.27;;;12.83;;
39020;SDS011;25188;51.958;5.842;2023-04-06T09:08:09;23.60;;;13.30;;
39020;SDS011;25188;51.958;5.842;2023-04-06T09:10:35;24.70;;;14.83;;
39020;SDS011;25188;51.958;5.842;2023-04-06T09:13:05;24.23;;;14.30;;
39020;SDS011;25188;51.958;5.842;2023-04-06T09:15:31;25.13;;;14.50;;
39020;SDS011;25188;51.958;5.842;2023-04-06T09:17:57;25.13;;;14.73;;
39020;SDS011;25188;51.958;5.842;2023-04-06T09:20:23;23.37;;;14.67;;
39020;SDS011;25188;51.958;5.842;2023-04-06T09:22:53;23.45;;;14.70;;
39020;SDS011;25188;51.958;5.842;2023-04-06T09:25:20;25.48;;;14.25;;
39020;SDS011;25188;51.958;5.842;2023-04-06T09:27:48;22.20;;;13.80;;
39020;SDS011;25188;51.958;5.842;2023-04-06T09:30:23;22.63;;;14.27;;
39020;SDS011;25188;51.958;5.842;2023-04-06T09:32:54;22.88;;;13.63;;
39020;SDS011;25188;51.958;5.842;2023-04-06T09:35:22;23.55;;;14.18;;
39020;SDS011;25188;51.958;5.842;2023-04-06T09:37:49;23.40;;;14.65;;
39020;SDS011;25188;51.958;5.842;2023-04-06T09:40:16;26.60;;;15.30;;
39020;SDS011;25188;51.958;5.842;2023-04-06T09:42:46;22.83;;;14.02;;
39020;SDS011;25188;51.958;5.842;2023-04-06T09:45:13;23.55;;;13.93;;
39020;SDS011;25188;51.958;5.842;2023-04-06T09:47:40;35.35;;;14.35;;
39020;SDS011;25188;51.958;5.842;2023-04-06T09:50:08;23.58;;;14.65;;
39020;SDS011;25188;51.958;5.842;2023-04-06T09:52:46;28.48;;;14.95;;
39020;SDS011;25188;51.958;5.842;2023-04-06T09:55:17;23.83;;;14.65;;
39020;SDS011;25188;51.958;5.842;2023-04-06T09:58:04;26.25;;;15.85;;
39020;SDS011;25188;51.958;5.842;2023-04-06T10:07:57;24.88;;;14.48;;
39020;SDS011;25188;51.958;5.842;2023-04-06T10:10:25;26.35;;;15.50;;
39020;SDS011;25188;51.958;5.842;2023-04-06T10:12:52;23.77;;;14.85;;
39020;SDS011;25188;51.958;5.842;2023-04-06T10:15:20;25.33;;;14.70;;
39020;SDS011;25188;51.958;5.842;2023-04-06T10:17:46;23.65;;;13.82;;
39020;SDS011;25188;51.958;5.842;2023-04-06T10:20:14;24.33;;;14.63;;
39020;SDS011;25188;51.958;5.842;2023-04-06T10:22:53;23.20;;;15.10;;
39020;SDS011;25188;51.958;5.842;2023-04-06T10:25:51;22.60;;;13.80;;
39020;SDS011;25188;51.958;5.842;2023-04-06T10:28:20;24.65;;;15.85;;
39020;SDS011;25188;51.958;5.842;2023-04-06T10:30:46;26.05;;;14.80;;
39020;SDS011;25188;51.958;5.842;2023-04-06T10:33:15;21.23;;;13.05;;
39020;SDS011;25188;51.958;5.842;2023-04-06T10:35:42;22.85;;;14.15;;
39020;SDS011;25188;51.958;5.842;2023-04-06T10:38:08;25.43;;;13.67;;
39020;SDS011;25188;51.958;5.842;2023-04-06T10:40:38;22.45;;;14.15;;
39020;SDS011;25188;51.958;5.842;2023-04-06T10:43:08;20.20;;;13.15;;
39020;SDS011;25188;51.958;5.842;2023-04-06T10:45:57;22.35;;;12.40;;
39020;SDS011;25188;51.958;5.842;2023-04-06T10:48:25;20.10;;;11.05;;
39020;SDS011;25188;51.958;5.842;2023-04-06T10:51:12;21.10;;;11.82;;
39020;SDS011;25188;51.958;5.842;2023-04-06T10:56:15;20.00;;;11.88;;
39020;SDS011;25188;51.958;5.842;2023-04-06T10:58:49;18.17;;;10.85;;
39020;SDS011;25188;51.958;5.842;2023-04-06T11:03:44;18.58;;;11.60;;
39020;SDS011;25188;51.958;5.842;2023-04-06T11:06:10;20.00;;;12.02;;
39020;SDS011;25188;51.958;5.842;2023-04-06T11:08:42;17.33;;;11.52;;
39020;SDS011;25188;51.958;5.842;2023-04-06T11:11:09;22.30;;;12.18;;
39020;SDS011;25188;51.958;5.842;2023-04-06T11:13:40;18.42;;;11.32;;
39020;SDS011;25188;51.958;5.842;2023-04-06T11:16:07;18.05;;;11.13;;
39020;SDS011;25188;51.958;5.842;2023-04-06T11:18:37;16.65;;;9.63;;
39020;SDS011;25188;51.958;5.842;2023-04-06T11:21:02;15.18;;;8.98;;
39020;SDS011;25188;51.958;5.842;2023-04-06T11:23:28;16.65;;;11.30;;
39020;SDS011;25188;51.958;5.842;2023-04-06T11:25:54;15.27;;;10.27;;
39020;SDS011;25188;51.958;5.842;2023-04-06T11:28:20;16.30;;;10.00;;
39020;SDS011;25188;51.958;5.842;2023-04-06T11:30:46;17.20;;;10.73;;
39020;SDS011;25188;51.958;5.842;2023-04-06T11:33:19;16.52;;;9.18;;
39020;SDS011;25188;51.958;5.842;2023-04-06T11:35:47;16.33;;;9.07;;
39020;SDS011;25188;51.958;5.842;2023-04-06T11:38:13;16.65;;;9.57;;
39020;SDS011;25188;51.958;5.842;2023-04-06T11:40:39;14.20;;;9.07;;
39020;SDS011;25188;51.958;5.842;2023-04-06T11:43:05;15.90;;;9.52;;
39020;SDS011;25188;51.958;5.842;2023-04-06T11:45:41;16.85;;;9.45;;
39020;SDS011;25188;51.958;5.842;2023-04-06T11:48:17;14.98;;;8.82;;
39020;SDS011;25188;51.958;5.842;2023-04-06T11:50:43;15.85;;;8.77;;
39020;SDS011;25188;51.958;5.842;2023-04-06T11:53:12;19.88;;;8.18;;
39020;SDS011;25188;51.958;5.842;2023-04-06T11:55:38;15.90;;;8.82;;
39020;SDS011;25188;51.958;5.842;2023-04-06T11:58:05;13.90;;;7.50;;
39020;SDS011;25188;51.958;5.842;2023-04-06T12:00:31;14.27;;;7.60;;
39020;SDS011;25188;51.958;5.842;2023-04-06T12:02:59;12.73;;;7.67;;
39020;SDS011;25188;51.958;5.842;2023-04-06T12:05:25;12.77;;;7.22;;
39020;SDS011;25188;51.958;5.842;2023-04-06T12:07:51;12.50;;;7.57;;
39020;SDS011;25188;51.958;5.842;2023-04-06T12:10:17;12.15;;;7.22;;
39020;SDS011;25188;51.958;5.842;2023-04-06T12:12:43;11.27;;;6.83;;
39020;SDS011;25188;51.958;5.842;2023-04-06T12:15:09;16.00;;;8.13;;
39020;SDS011;25188;51.958;5.842;2023-04-06T12:17:34;12.27;;;6.87;;
39020;SDS011;25188;51.958;5.842;2023-04-06T12:20:01;13.50;;;6.70;;
39020;SDS011;25188;51.958;5.842;2023-04-06T12:22:27;12.90;;;6.93;;
39020;SDS011;25188;51.958;5.842;2023-04-06T12:24:53;14.30;;;6.43;;
39020;SDS011;25188;51.958;5.842;2023-04-06T12:27:19;13.87;;;7.33;;
39020;SDS011;25188;51.958;5.842;2023-04-06T12:29:45;14.87;;;6.77;;
39020;SDS011;25188;51.958;5.842;2023-04-06T12:32:14;11.50;;;6.07;;
39020;SDS011;25188;51.958;5.842;2023-04-06T12:34:40;13.70;;;7.43;;
39020;SDS011;25188;51.958;5.842;2023-04-06T12:37:05;10.63;;;6.00;;
39020;SDS011;25188;51.958;5.842;2023-04-06T12:39:31;11.53;;;6.03;;
39020;SDS011;25188;51.958;5.842;2023-04-06T12:41:57;10.80;;;5.80;;
39020;SDS011;25188;51.958;5.842;2023-04-06T12:44:22;10.77;;;6.03;;
39020;SDS011;25188;51.958;5.842;2023-04-06T12:46:48;11.13;;;5.83;;
39020;SDS011;25188;51.958;5.842;2023-04-06T12:49:15;7.90;;;4.33;;
39020;SDS011;25188;51.958;5.842;2023-04-06T12:51:42;8.80;;;5.07;;
39020;SDS011;25188;51.958;5.842;2023-04-06T12:54:08;10.83;;;5.40;;
39020;SDS011;25188;51.958;5.842;2023-04-06T12:56:33;10.50;;;5.07;;
39020;SDS011;25188;51.958;5.842;2023-04-06T12:58:59;8.80;;;4.90;;
39020;SDS011;25188;51.958;5.842;2023-04-06T13:01:26;8.67;;;4.97;;
39020;SDS011;25188;51.958;5.842;2023-04-06T13:03:52;10.73;;;5.57;;
39020;SDS011;25188;51.958;5.842;2023-04-06T13:06:18;11.80;;;5.57;;
39020;SDS011;25188;51.958;5.842;2023-04-06T13:08:44;10.97;;;5.67;;
39020;SDS011;25188;51.958;5.842;2023-04-06T13:11:12;10.13;;;5.10;;
39020;SDS011;25188;51.958;5.842;2023-04-06T13:13:38;13.13;;;6.63;;
39020;SDS011;25188;51.958;5.842;2023-04-06T13:16:04;10.47;;;5.47;;
39020;SDS011;25188;51.958;5.842;2023-04-06T13:18:32;11.67;;;5.80;;
39020;SDS011;25188;51.958;5.842;2023-04-06T13:20:59;13.47;;;5.10;;
39020;SDS011;25188;51.958;5.842;2023-04-06T13:23:25;11.63;;;5.57;;
39020;SDS011;25188;51.958;5.842;2023-04-06T13:25:58;9.67;;;5.40;;
39020;SDS011;25188;51.958;5.842;2023-04-06T13:28:24;9.95;;;5.25;;
39020;SDS011;25188;51.958;5.842;2023-04-06T13:30:51;10.97;;;5.70;;
39020;SDS011;25188;51.958;5.842;2023-04-06T13:33:17;11.47;;;6.00;;
39020;SDS011;25188;51.958;5.842;2023-04-06T13:35:45;16.87;;;6.60;;
39020;SDS011;25188;51.958;5.842;2023-04-06T13:38:12;12.27;;;6.73;;
39020;SDS011;25188;51.958;5.842;2023-04-06T13:40:41;10.90;;;6.20;;
39020;SDS011;25188;51.958;5.842;2023-04-06T13:43:07;11.40;;;6.43;;
39020;SDS011;25188;51.958;5.842;2023-04-06T13:45:33;14.20;;;7.30;;
39020;SDS011;25188;51.958;5.842;2023-04-06T13:47:59;12.30;;;6.73;;
39020;SDS011;25188;51.958;5.842;2023-04-06T13:50:25;12.40;;;6.93;;
39020;SDS011;25188;51.958;5.842;2023-04-06T13:52:51;12.23;;;7.13;;
39020;SDS011;25188;51.958;5.842;2023-04-06T13:55:17;11.83;;;6.63;;
39020;SDS011;25188;51.958;5.842;2023-04-06T13:57:43;12.30;;;7.33;;
39020;SDS011;25188;51.958;5.842;2023-04-06T14:00:09;14.20;;;7.93;;
39020;SDS011;25188;51.958;5.842;2023-04-06T14:02:37;14.97;;;8.27;;
39020;SDS011;25188;51.958;5.842;2023-04-06T14:05:04;15.13;;;7.87;;
39020;SDS011;25188;51.958;5.842;2023-04-06T14:07:30;15.07;;;8.40;;
39020;SDS011;25188;51.958;5.842;2023-04-06T14:09:55;14.07;;;8.03;;
39020;SDS011;25188;51.958;5.842;2023-04-06T14:12:21;14.97;;;8.97;;
39020;SDS011;25188;51.958;5.842;2023-04-06T14:14:47;15.87;;;9.53;;
39020;SDS011;25188;51.958;5.842;2023-04-06T14:17:12;16.60;;;8.33;;
39020;SDS011;25188;51.958;5.842;2023-04-06T14:19:38;14.73;;;9.03;;
39020;SDS011;25188;51.958;5.842;2023-04-06T14:22:05;15.43;;;9.30;;
39020;SDS011;25188;51.958;5.842;2023-04-06T14:24:30;14.37;;;8.73;;
39020;SDS011;25188;51.958;5.842;2023-04-06T14:26:56;15.30;;;8.73;;
39020;SDS011;25188;51.958;5.842;2023-04-06T14:29:22;15.50;;;8.07;;
39020;SDS011;25188;51.958;5.842;2023-04-06T14:31:48;18.43;;;8.93;;
39020;SDS011;25188;51.958;5.842;2023-04-06T14:34:14;15.03;;;9.33;;
39020;SDS011;25188;51.958;5.842;2023-04-06T14:36:40;16.63;;;9.80;;
39020;SDS011;25188;51.958;5.842;2023-04-06T14:39:07;16.70;;;9.60;;
39020;SDS011;25188;51.958;5.842;2023-04-06T14:41:33;16.17;;;8.97;;
39020;SDS011;25188;51.958;5.842;2023-04-06T14:43:59;15.40;;;8.33;;
39020;SDS011;25188;51.958;5.842;2023-04-06T14:46:26;16.23;;;9.63;;
39020;SDS011;25188;51.958;5.842;2023-04-06T14:48:55;14.77;;;8.63;;
39020;SDS011;25188;51.958;5.842;2023-04-06T14:51:24;15.33;;;8.53;;